Time;durP1;ratioP1;P1;durP2;ratioP2;P2;SDS_P1;SDS_P2;PMS_P1;PMS_P2;Temp;Humidity;BMP_temperature;BMP_pressure;BME280_temperature;BME280_humidity;BME280_pressure;Samples;Min_cycle;Max_cycle;Signal;HPM_P1;HPM_P2
2023/03/01 00:01:40;;;;;;;19.23;10.93;;;0.90;99.90;;;;;;5044255;28;20033;-66
2023/03/01 00:04:05;;;;;;;18.58;10.93;;;0.80;99.90;;;;;;5036172;28;20041;-66
2023/03/01 00:06:31;;;;;;;19.67;10.75;;;0.90;99.90;;;;;;5039228;28;20044;-66
2023/03/01 00:08:56;;;;;;;17.45;11.07;;;0.90;99.90;;;;;;5048927;28;20779;-66
2023/03/01 00:11:28;;;;;;;19.90;11.35;;;0.90;99.90;;;;;;5049091;28;20052;-66
2023/03/01 00:13:56;;;;;;;19.35;11.30;;;0.80;99.90;;;;;;5048663;28;20045;-66
2023/03/01 00:16:30;;;;;;;17.33;10.45;;;0.80;99.90;;;;;;5047585;28;20527;-66
2023/03/01 00:18:57;;;;;;;16.02;10.13;;;0.80;99.90;;;;;;5049191;28;20041;-66
2023/03/01 00:21:23;;;;;;;20.60;11.52;;;0.80;99.90;;;;;;5047819;28;20110;-66
2023/03/01 00:23:50;;;;;;;22.27;12.43;;;0.80;99.90;;;;;;5048414;28;20090;-66
2023/03/01 00:26:16;;;;;;;17.85;10.95;;;0.70;99.90;;;;;;5049067;28;20175;-66
2023/03/01 00:28:42;;;;;;;20.10;11.07;;;0.70;99.90;;;;;;5049102;28;20047;-66
2023/03/01 00:31:10;;;;;;;14.38;9.43;;;0.70;99.90;;;;;;5047609;28;20497;-66
2023/03/01 00:33:36;;;;;;;20.92;11.63;;;0.70;99.90;;;;;;5030173;28;20045;-66
2023/03/01 00:36:02;;;;;;;19.00;10.60;;;0.70;99.90;;;;;;5048077;28;20382;-66
2023/03/01 00:38:28;;;;;;;18.73;10.80;;;0.60;99.90;;;;;;5048967;28;20094;-66
2023/03/01 00:40:54;;;;;;;16.20;9.65;;;0.50;99.90;;;;;;5049037;28;20047;-65
2023/03/01 00:43:20;;;;;;;19.35;10.65;;;0.60;99.90;;;;;;5048655;28;20045;-66
2023/03/01 00:45:45;;;;;;;15.65;10.43;;;0.60;99.90;;;;;;5047200;28;20559;-66
2023/03/01 00:48:11;;;;;;;18.00;10.73;;;0.60;99.90;;;;;;5049033;28;20044;-66
2023/03/01 00:50:37;;;;;;;17.75;10.85;;;0.50;99.90;;;;;;5048921;28;20521;-66
2023/03/01 00:53:02;;;;;;;19.60;10.73;;;0.50;99.90;;;;;;5049043;28;20045;-66
2023/03/01 00:55:28;;;;;;;16.27;10.93;;;0.40;99.90;;;;;;5047977;28;20510;-66
2023/03/01 00:57:54;;;;;;;19.83;11.77;;;0.30;99.90;;;;;;5048827;28;20036;-66
2023/03/01 01:00:20;;;;;;;26.10;11.48;;;0.50;99.90;;;;;;5047655;28;20053;-66
2023/03/01 01:02:46;;;;;;;19.25;10.88;;;0.50;99.90;;;;;;5048745;28;20044;-66
2023/03/01 01:05:12;;;;;;;19.02;10.38;;;0.50;99.90;;;;;;5047401;28;20029;-66
2023/03/01 01:07:38;;;;;;;19.63;10.45;;;0.50;99.90;;;;;;5047659;28;20044;-66
2023/03/01 01:10:04;;;;;;;21.02;11.05;;;0.30;99.90;;;;;;5046884;28;20048;-66
2023/03/01 01:12:30;;;;;;;18.05;10.63;;;0.40;99.90;;;;;;5049742;28;20036;-66
2023/03/01 01:14:56;;;;;;;19.77;11.45;;;0.40;99.90;;;;;;5066479;28;20040;-66
2023/03/01 01:17:22;;;;;;;18.88;11.70;;;0.40;99.90;;;;;;5067047;28;20068;-66
2023/03/01 01:19:47;;;;;;;17.38;10.70;;;0.50;99.90;;;;;;5068018;28;20122;-66
2023/03/01 01:22:13;;;;;;;21.23;12.32;;;0.40;99.90;;;;;;5068257;28;20045;-66
2023/03/01 01:24:38;;;;;;;20.95;11.95;;;0.40;99.90;;;;;;5067485;28;20124;-66
2023/03/01 01:27:04;;;;;;;19.05;11.35;;;0.40;99.90;;;;;;5068400;28;20033;-66
2023/03/01 01:29:31;;;;;;;18.88;12.23;;;0.20;99.90;;;;;;5068534;28;20049;-66
2023/03/01 01:31:56;;;;;;;25.23;12.95;;;0.20;99.90;;;;;;5068500;28;20047;-66
2023/03/01 01:34:22;;;;;;;19.75;12.05;;;0.30;99.90;;;;;;5067765;28;20432;-66
2023/03/01 01:36:49;;;;;;;18.13;11.02;;;0.30;99.90;;;;;;5067845;28;20049;-66
2023/03/01 01:39:15;;;;;;;21.77;12.10;;;0.30;99.90;;;;;;5068272;28;20045;-66
2023/03/01 01:41:42;;;;;;;18.73;11.85;;;0.30;99.90;;;;;;5067315;28;20032;-66
2023/03/01 01:44:12;;;;;;;19.15;11.27;;;0.30;99.90;;;;;;5068046;28;20087;-66
2023/03/01 01:46:42;;;;;;;18.90;11.88;;;0.30;99.90;;;;;;5071096;28;20499;-66
2023/03/01 01:49:35;;;;;;;19.25;11.85;;;0.30;99.90;;;;;;5064993;28;20084;-66
2023/03/01 01:52:10;;;;;;;;;;;0.30;99.90;;;;;;5036108;28;20040;-66
2023/03/01 01:54:44;;;;;;;21.63;12.55;;;0.40;99.90;;;;;;5048220;28;20389;-66
2023/03/01 01:57:34;;;;;;;20.25;11.43;;;0.30;99.90;;;;;;5044838;28;20071;-66
2023/03/01 02:00:06;;;;;;;21.77;11.75;;;0.30;99.90;;;;;;5037257;28;20037;-66
2023/03/01 02:02:32;;;;;;;19.83;12.02;;;0.20;99.90;;;;;;5051513;28;20489;-66
2023/03/01 02:05:23;;;;;;;25.23;12.30;;;0.30;99.90;;;;;;5050579;28;20122;-66
2023/03/01 02:07:50;;;;;;;24.05;13.07;;;0.20;99.90;;;;;;5043203;28;20514;-66
2023/03/01 02:10:15;;;;;;;19.25;11.73;;;0.30;99.90;;;;;;5050312;28;20099;-66
2023/03/01 02:12:41;;;;;;;21.42;12.57;;;0.30;99.90;;;;;;5050955;28;20328;-66
2023/03/01 02:15:07;;;;;;;24.50;11.70;;;0.30;99.90;;;;;;5049962;28;20557;-66
2023/03/01 02:17:34;;;;;;;20.33;11.10;;;0.20;99.90;;;;;;5049963;28;20048;-66
2023/03/01 02:20:13;;;;;;;17.92;11.55;;;0.20;99.90;;;;;;5051345;28;20048;-66
2023/03/01 02:22:39;;;;;;;20.27;12.10;;;0.10;99.90;;;;;;5051379;28;20076;-66
2023/03/01 02:25:17;;;;;;;24.38;13.02;;;0.10;99.90;;;;;;5050641;28;20068;-66
2023/03/01 02:28:02;;;;;;;18.98;11.95;;;0.10;99.90;;;;;;5051205;28;20106;-66
2023/03/01 02:30:29;;;;;;;21.67;12.43;;;0.00;99.90;;;;;;5051088;28;20413;-66
2023/03/01 02:33:02;;;;;;;21.00;11.52;;;0.00;99.90;;;;;;5050976;28;20427;-66
2023/03/01 02:35:34;;;;;;;21.92;12.20;;;0.00;99.90;;;;;;5049618;28;20049;-66
2023/03/01 02:38:01;;;;;;;16.45;10.90;;;0.00;99.90;;;;;;5050540;28;20513;-66
2023/03/01 02:40:30;;;;;;;18.50;11.63;;;-0.10;99.90;;;;;;5049732;28;20462;-66
2023/03/01 02:42:58;;;;;;;17.20;12.45;;;-0.10;99.90;;;;;;5051041;28;20052;-66
2023/03/01 02:45:24;;;;;;;19.27;11.35;;;-0.10;99.90;;;;;;5050007;28;20075;-66
2023/03/01 02:47:49;;;;;;;22.85;11.93;;;-0.10;99.90;;;;;;5050821;28;20040;-66
2023/03/01 02:50:24;;;;;;;18.42;11.77;;;-0.10;99.90;;;;;;5050898;28;20041;-66
2023/03/01 02:53:06;;;;;;;20.45;12.25;;;-0.10;99.90;;;;;;5050948;28;20127;-66
2023/03/01 02:55:31;;;;;;;21.38;12.48;;;-0.10;99.90;;;;;;5049609;28;20124;-66
2023/03/01 02:57:58;;;;;;;18.73;11.75;;;-0.20;99.90;;;;;;5050421;28;20132;-66
2023/03/01 03:00:28;;;;;;;19.13;12.52;;;-0.10;99.90;;;;;;5049600;28;20060;-66
2023/03/01 03:02:56;;;;;;;20.50;12.63;;;-0.20;99.90;;;;;;5050721;28;20099;-66
2023/03/01 03:05:30;;;;;;;22.85;12.68;;;-0.20;99.90;;;;;;5049640;28;20044;-66
2023/03/01 03:07:56;;;;;;;27.75;13.05;;;-0.20;99.90;;;;;;5050293;28;20041;-66
2023/03/01 03:10:25;;;;;;;22.13;12.63;;;-0.40;99.90;;;;;;5050004;28;20048;-66
2023/03/01 03:12:54;;;;;;;24.52;14.32;;;-0.30;99.90;;;;;;5049281;28;20041;-66
2023/03/01 03:15:20;;;;;;;20.88;11.25;;;-0.30;99.90;;;;;;5048971;28;20055;-66
2023/03/01 03:17:46;;;;;;;17.67;11.68;;;-0.40;99.90;;;;;;5048652;28;20044;-66
2023/03/01 03:20:18;;;;;;;22.23;11.52;;;-0.40;99.90;;;;;;5049877;28;20071;-66
2023/03/01 03:22:45;;;;;;;20.10;12.47;;;-0.40;99.90;;;;;;5049073;28;20746;-66
2023/03/01 03:25:11;;;;;;;25.60;12.32;;;-0.40;99.90;;;;;;5048654;28;20570;-66
2023/03/01 03:27:37;;;;;;;20.38;12.32;;;-0.40;99.90;;;;;;5049075;28;20118;-66
2023/03/01 03:30:08;;;;;;;18.67;11.95;;;-0.40;99.90;;;;;;5049849;28;20521;-66
2023/03/01 03:32:35;;;;;;;23.25;12.52;;;-0.40;99.90;;;;;;5049698;28;20719;-65
2023/03/01 03:35:02;;;;;;;18.90;12.25;;;-0.40;99.90;;;;;;5048142;28;20052;-66
2023/03/01 03:40:15;;;;;;;22.40;11.68;;;-0.50;99.90;;;;;;5049511;28;20060;-66
2023/03/01 03:42:41;;;;;;;20.80;11.52;;;-0.50;99.90;;;;;;5049625;28;20041;-66
2023/03/01 03:45:07;;;;;;;17.52;11.38;;;-0.50;99.90;;;;;;5048775;28;20490;-66
2023/03/01 03:47:32;;;;;;;16.77;10.85;;;-0.50;99.90;;;;;;5049764;28;20041;-66
2023/03/01 03:49:58;;;;;;;16.92;10.32;;;-0.50;99.90;;;;;;5049728;28;20500;-66
2023/03/01 03:52:23;;;;;;;17.33;10.38;;;-0.40;99.90;;;;;;5049309;28;20053;-66
2023/03/01 03:54:49;;;;;;;21.10;12.02;;;-0.40;99.90;;;;;;5048847;28;20040;-66
2023/03/01 03:57:15;;;;;;;17.33;11.27;;;-0.60;99.90;;;;;;5049347;28;20427;-66
2023/03/01 03:59:40;;;;;;;18.92;11.10;;;-0.60;99.90;;;;;;5049740;28;20077;-66
2023/03/01 04:02:08;;;;;;;20.98;11.57;;;-0.60;99.90;;;;;;5049549;28;20029;-66
2023/03/01 04:04:34;;;;;;;19.40;11.77;;;-0.50;99.90;;;;;;5048372;28;20398;-66
2023/03/01 04:06:59;;;;;;;16.65;10.68;;;-0.60;99.90;;;;;;5048871;28;20047;-66
2023/03/01 04:09:25;;;;;;;17.48;10.85;;;-0.60;99.90;;;;;;5049422;28;20041;-66
2023/03/01 04:11:50;;;;;;;18.08;12.07;;;-0.60;99.90;;;;;;5049344;28;20590;-66
2023/03/01 04:14:16;;;;;;;16.83;11.00;;;-0.60;99.90;;;;;;5048352;28;20048;-66
2023/03/01 04:16:42;;;;;;;15.93;10.60;;;-0.50;99.90;;;;;;5048185;28;20041;-66
2023/03/01 04:19:09;;;;;;;17.55;10.32;;;-0.50;99.90;;;;;;5049029;28;20053;-66
2023/03/01 04:21:35;;;;;;;18.27;10.57;;;-0.50;99.90;;;;;;5049327;28;20043;-66
2023/03/01 04:24:03;;;;;;;16.35;10.50;;;-0.60;99.90;;;;;;5048352;28;20068;-66
2023/03/01 04:26:29;;;;;;;20.13;11.55;;;-0.50;99.90;;;;;;5049139;28;20045;-66
2023/03/01 04:28:54;;;;;;;15.65;10.88;;;-0.50;99.90;;;;;;5048550;28;20445;-66
2023/03/01 04:31:21;;;;;;;19.48;10.80;;;-0.50;99.90;;;;;;5048868;28;20056;-66
2023/03/01 04:33:55;;;;;;;19.60;11.77;;;-0.50;99.90;;;;;;5048484;28;20049;-65
2023/03/01 04:36:23;;;;;;;20.05;11.52;;;-0.50;99.90;;;;;;5049067;28;20088;-66
2023/03/01 04:38:49;;;;;;;20.65;12.82;;;-0.60;99.90;;;;;;5047121;28;20428;-66
2023/03/01 04:41:18;;;;;;;19.00;11.10;;;-0.50;99.90;;;;;;5048385;28;20036;-66
2023/03/01 04:43:44;;;;;;;19.88;12.00;;;-0.60;99.90;;;;;;5048500;28;20083;-65
2023/03/01 04:46:15;;;;;;;19.67;11.23;;;-0.50;99.90;;;;;;5048361;28;20041;-66
2023/03/01 04:48:42;;;;;;;23.27;12.90;;;-0.60;99.90;;;;;;5047567;28;20041;-66
2023/03/01 04:51:09;;;;;;;23.38;11.60;;;-0.60;99.90;;;;;;5048830;28;20064;-66
2023/03/01 04:53:38;;;;;;;18.70;11.60;;;-0.70;99.90;;;;;;5048034;28;20047;-66
2023/03/01 04:56:04;;;;;;;19.85;12.02;;;-0.70;99.90;;;;;;5047761;28;20060;-66
2023/03/01 04:58:30;;;;;;;17.80;11.35;;;-0.70;99.90;;;;;;5048875;28;20450;-66
2023/03/01 05:00:56;;;;;;;18.80;11.38;;;-0.80;99.90;;;;;;5048874;28;20041;-66
2023/03/01 05:03:22;;;;;;;14.60;9.95;;;-0.90;99.90;;;;;;5048902;28;20490;-66
2023/03/01 05:05:49;;;;;;;18.75;10.27;;;-1.00;99.90;;;;;;5047626;28;20043;-66
2023/03/01 05:08:18;;;;;;;15.63;10.00;;;-0.90;99.90;;;;;;5048625;28;20037;-66
2023/03/01 05:10:46;;;;;;;20.23;11.88;;;-0.90;99.90;;;;;;5048233;28;20055;-66
2023/03/01 05:13:20;;;;;;;19.98;10.77;;;-1.00;99.90;;;;;;5048186;28;20049;-66
2023/03/01 05:15:54;;;;;;;18.80;10.98;;;-0.80;99.90;;;;;;5047143;28;20040;-66
2023/03/01 05:18:19;;;;;;;20.35;11.80;;;-0.80;99.90;;;;;;5048143;28;20056;-66
2023/03/01 05:20:45;;;;;;;21.38;11.30;;;-0.80;99.90;;;;;;5051696;28;20685;-66
2023/03/01 05:23:11;;;;;;;24.77;11.38;;;-0.80;99.90;;;;;;5051682;28;20041;-66
2023/03/01 05:25:39;;;;;;;16.48;10.63;;;-0.90;99.90;;;;;;5051189;28;20064;-66
2023/03/01 05:28:07;;;;;;;18.27;10.77;;;-1.00;99.90;;;;;;5052046;28;20052;-66
2023/03/01 05:30:34;;;;;;;17.27;11.07;;;-0.90;99.90;;;;;;5052138;28;20044;-66
2023/03/01 05:33:00;;;;;;;22.02;10.57;;;-0.80;99.90;;;;;;5052056;28;20048;-66
2023/03/01 05:35:26;;;;;;;22.33;11.18;;;-0.80;99.90;;;;;;5050981;28;20037;-66
2023/03/01 05:37:52;;;;;;;24.60;11.55;;;-0.80;99.90;;;;;;5047896;28;20115;-65
2023/03/01 05:40:23;;;;;;;20.90;11.10;;;-0.90;99.90;;;;;;5051206;28;20052;-65
2023/03/01 05:42:55;;;;;;;14.40;10.07;;;-0.90;99.90;;;;;;5042545;28;20041;-66
2023/03/01 05:45:22;;;;;;;18.58;10.25;;;-0.90;99.90;;;;;;5049967;28;20544;-66
2023/03/01 05:47:49;;;;;;;17.45;10.20;;;-0.90;99.90;;;;;;5050727;28;20037;-65
2023/03/01 05:50:28;;;;;;;17.30;10.32;;;-1.00;99.90;;;;;;5050373;28;20127;-66
2023/03/01 05:53:14;;;;;;;17.67;9.80;;;-0.90;99.90;;;;;;5052028;28;20409;-66
2023/03/01 05:55:40;;;;;;;16.05;9.27;;;-0.90;99.90;;;;;;5049893;28;20417;-66
2023/03/01 05:58:09;;;;;;;17.52;11.23;;;-0.90;99.90;;;;;;5050995;28;20048;-66
2023/03/01 06:00:34;;;;;;;15.30;9.65;;;-1.00;99.90;;;;;;5051456;28;20075;-66
2023/03/01 06:03:00;;;;;;;16.50;10.40;;;-1.00;99.90;;;;;;5051916;28;20037;-66
2023/03/01 06:05:27;;;;;;;21.38;10.93;;;-1.10;99.90;;;;;;5050799;28;20041;-66
2023/03/01 06:07:54;;;;;;;19.40;10.35;;;-1.00;99.90;;;;;;5051707;28;20048;-66
2023/03/01 06:10:21;;;;;;;19.20;10.50;;;-1.10;99.90;;;;;;5050862;28;20509;-66
2023/03/01 06:12:47;;;;;;;16.85;10.50;;;-1.10;99.90;;;;;;5042516;28;20041;-66
2023/03/01 06:15:14;;;;;;;15.65;9.63;;;-1.20;99.90;;;;;;5040274;28;20041;-66
2023/03/01 06:17:42;;;;;;;19.05;9.57;;;-1.30;99.90;;;;;;5046258;28;20041;-66
2023/03/01 06:20:12;;;;;;;17.73;10.05;;;-1.30;99.90;;;;;;5050374;28;20041;-66
2023/03/01 06:22:38;;;;;;;22.30;11.85;;;-1.20;99.90;;;;;;5049218;28;20122;-66
2023/03/01 06:25:05;;;;;;;18.80;10.88;;;-1.20;99.90;;;;;;5048111;28;20045;-66
2023/03/01 06:27:30;;;;;;;23.02;11.20;;;-1.20;99.90;;;;;;5050633;28;20516;-66
2023/03/01 06:29:56;;;;;;;15.85;10.70;;;-1.30;99.90;;;;;;5049854;28;20041;-66
2023/03/01 06:32:21;;;;;;;16.33;10.68;;;-1.30;99.90;;;;;;5051101;28;20068;-66
2023/03/01 06:34:47;;;;;;;20.85;10.25;;;-1.40;99.90;;;;;;5050203;28;20490;-66
2023/03/01 06:37:12;;;;;;;19.45;11.23;;;-1.40;99.90;;;;;;5050919;28;20114;-66
2023/03/01 06:39:38;;;;;;;17.98;10.80;;;-1.50;99.90;;;;;;5049568;28;20136;-66
2023/03/01 06:42:04;;;;;;;21.25;11.27;;;-1.30;99.90;;;;;;5050828;28;20591;-66
2023/03/01 06:44:30;;;;;;;25.85;12.30;;;-1.20;99.90;;;;;;5050264;28;20075;-66
2023/03/01 06:46:55;;;;;;;22.42;12.02;;;-1.20;99.90;;;;;;5049969;28;20041;-66
2023/03/01 06:49:21;;;;;;;18.20;11.45;;;-1.20;99.90;;;;;;5049921;28;20044;-66
2023/03/01 06:51:47;;;;;;;20.90;12.32;;;-1.20;99.90;;;;;;5050435;28;20084;-66
2023/03/01 06:54:13;;;;;;;27.40;10.90;;;-1.20;99.90;;;;;;5050080;28;20124;-66
2023/03/01 06:56:39;;;;;;;20.25;11.60;;;-1.10;99.90;;;;;;5050160;28;20044;-66
2023/03/01 06:59:05;;;;;;;17.80;10.80;;;-1.10;99.90;;;;;;5049819;28;20123;-66
2023/03/01 07:01:30;;;;;;;21.52;11.65;;;-1.00;99.90;;;;;;5048812;28;20401;-66
2023/03/01 07:03:56;;;;;;;26.00;13.45;;;-1.00;99.90;;;;;;5048804;28;20457;-66
2023/03/01 07:06:23;;;;;;;22.58;13.20;;;-0.90;99.90;;;;;;5050206;28;20051;-66
2023/03/01 07:08:48;;;;;;;20.52;12.68;;;-0.90;99.90;;;;;;5050305;28;20047;-66
2023/03/01 07:11:15;;;;;;;29.70;14.57;;;-1.00;99.90;;;;;;5066664;28;20048;-65
2023/03/01 07:13:40;;;;;;;29.88;13.20;;;-1.00;99.90;;;;;;5038156;28;20083;-65
2023/03/01 07:16:07;;;;;;;28.67;14.40;;;-0.80;99.90;;;;;;5033224;28;20089;-65
2023/03/01 07:18:32;;;;;;;26.88;14.05;;;-0.80;99.90;;;;;;5027871;28;20038;-66
2023/03/01 07:20:58;;;;;;;23.83;13.63;;;-0.70;99.90;;;;;;5029447;28;20099;-66
2023/03/01 07:23:23;;;;;;;29.00;13.55;;;-0.70;99.90;;;;;;5030134;28;20050;-66
2023/03/01 07:25:55;;;;;;;19.63;12.75;;;-0.60;99.90;;;;;;5029411;28;20037;-66
2023/03/01 07:28:23;;;;;;;23.77;12.73;;;-0.50;99.90;;;;;;5029574;28;20045;-66
2023/03/01 07:30:49;;;;;;;22.40;12.70;;;-0.50;99.90;;;;;;5029871;28;20045;-66
2023/03/01 07:33:14;;;;;;;24.63;13.98;;;-0.40;99.90;;;;;;5029664;28;20049;-66
2023/03/01 07:35:40;;;;;;;27.05;14.07;;;-0.30;99.90;;;;;;5028724;28;20037;-66
2023/03/01 07:38:05;;;;;;;28.35;15.18;;;-0.30;99.90;;;;;;5030063;28;20103;-66
2023/03/01 07:40:31;;;;;;;29.40;15.70;;;-0.30;99.90;;;;;;5029777;28;20045;-65
2023/03/01 07:42:58;;;;;;;33.10;15.40;;;-0.30;99.90;;;;;;5028926;28;20086;-66
2023/03/01 07:45:24;;;;;;;26.05;15.63;;;-0.20;99.90;;;;;;5029336;28;20038;-66
2023/03/01 07:47:51;;;;;;;28.08;16.35;;;0.00;99.90;;;;;;5029733;28;20743;-66
2023/03/01 07:50:17;;;;;;;31.35;16.75;;;0.10;99.90;;;;;;5044306;28;20136;-65
2023/03/01 07:52:45;;;;;;;34.40;16.17;;;0.10;99.90;;;;;;5049318;28;20164;-66
2023/03/01 07:55:11;;;;;;;27.75;16.77;;;0.20;99.90;;;;;;5046543;28;20090;-66
2023/03/01 07:57:36;;;;;;;27.55;17.23;;;0.20;99.90;;;;;;5048966;28;20048;-66
2023/03/01 08:00:03;;;;;;;31.13;17.88;;;0.20;99.90;;;;;;5048503;28;20127;-65
2023/03/01 08:02:28;;;;;;;30.38;16.77;;;0.20;99.90;;;;;;5049563;28;20075;-66
2023/03/01 08:04:54;;;;;;;30.88;16.67;;;0.20;99.90;;;;;;5048752;28;20037;-65
2023/03/01 08:07:20;;;;;;;28.80;16.10;;;0.30;99.90;;;;;;5049208;28;20066;-65
2023/03/01 08:09:45;;;;;;;31.92;16.25;;;0.40;99.90;;;;;;5048200;28;20041;-65
2023/03/01 08:12:11;;;;;;;34.75;17.10;;;0.50;99.90;;;;;;5047712;28;20051;-65
2023/03/01 08:14:36;;;;;;;30.80;16.80;;;0.50;99.90;;;;;;5048368;28;20075;-65
2023/03/01 08:17:02;;;;;;;29.85;16.23;;;0.70;99.90;;;;;;5048571;28;20044;-65
2023/03/01 08:19:29;;;;;;;28.63;15.77;;;0.80;99.90;;;;;;5048902;28;20509;-66
2023/03/01 08:21:57;;;;;;;27.13;15.70;;;0.80;99.90;;;;;;5048766;28;20029;-66
2023/03/01 08:24:23;;;;;;;26.23;14.57;;;0.90;99.90;;;;;;5047825;28;20040;-66
2023/03/01 08:26:49;;;;;;;27.10;16.10;;;1.00;99.90;;;;;;5049152;28;20033;-65
2023/03/01 08:29:15;;;;;;;27.65;15.60;;;1.00;99.90;;;;;;5049204;28;20120;-66
2023/03/01 08:31:40;;;;;;;29.55;16.33;;;1.10;99.90;;;;;;5049081;28;20413;-66
2023/03/01 08:34:11;;;;;;;29.70;16.23;;;1.10;99.90;;;;;;5048255;28;20037;-65
2023/03/01 08:36:40;;;;;;;27.60;14.38;;;1.20;99.90;;;;;;5048231;28;20033;-66
2023/03/01 08:39:07;;;;;;;28.45;15.13;;;1.20;99.90;;;;;;5048606;28;20126;-66
2023/03/01 08:41:32;;;;;;;27.10;14.45;;;1.20;99.90;;;;;;5043392;28;20041;-65
2023/03/01 08:43:58;;;;;;;24.38;13.93;;;1.30;99.90;;;;;;5045558;28;20029;-66
2023/03/01 08:46:32;;;;;;;26.23;14.55;;;1.40;99.90;;;;;;5043913;28;20498;-66
2023/03/01 08:48:58;;;;;;;26.13;14.80;;;1.50;99.90;;;;;;5047495;28;20440;-65
2023/03/01 08:51:24;;;;;;;24.65;13.88;;;1.50;99.90;;;;;;5047477;28;20051;-66
2023/03/01 08:53:50;;;;;;;28.48;14.38;;;1.60;99.90;;;;;;5046917;28;20099;-65
2023/03/01 08:56:18;;;;;;;23.35;14.57;;;1.60;99.90;;;;;;5051159;28;20076;-66
2023/03/01 08:58:48;;;;;;;20.83;12.88;;;1.70;99.90;;;;;;5051375;28;20162;-65
2023/03/01 09:01:16;;;;;;;24.27;12.93;;;1.70;99.90;;;;;;5052828;28;20059;-65
2023/03/01 09:03:42;;;;;;;25.13;14.15;;;1.80;99.90;;;;;;5047958;28;20048;-65
2023/03/01 09:06:09;;;;;;;25.25;13.63;;;1.90;99.90;;;;;;5049051;28;20124;-65
2023/03/01 09:08:39;;;;;;;23.73;13.15;;;2.00;99.90;;;;;;5048036;28;20045;-65
2023/03/01 09:11:07;;;;;;;21.10;12.63;;;2.10;99.90;;;;;;5053604;28;20037;-66
2023/03/01 09:13:33;;;;;;;21.63;13.52;;;2.00;99.90;;;;;;5049549;28;20116;-65
2023/03/01 09:16:00;;;;;;;20.73;13.02;;;2.10;99.90;;;;;;5051126;28;20560;-65
2023/03/01 09:18:26;;;;;;;21.63;13.35;;;2.20;99.90;;;;;;5052170;28;20490;-65
2023/03/01 09:20:51;;;;;;;20.02;11.77;;;2.20;99.90;;;;;;5051055;28;20044;-65
2023/03/01 09:23:17;;;;;;;16.17;10.43;;;2.30;99.90;;;;;;5051926;28;20091;-65
2023/03/01 09:25:42;;;;;;;17.88;11.18;;;2.30;99.90;;;;;;5050707;28;20072;-65
2023/03/01 09:28:08;;;;;;;15.07;10.65;;;2.40;99.90;;;;;;5052064;28;20534;-65
2023/03/01 09:30:34;;;;;;;21.13;11.93;;;2.50;99.90;;;;;;5052138;28;20045;-65
2023/03/01 09:32:59;;;;;;;19.75;10.50;;;2.60;99.90;;;;;;5052057;28;20095;-66
2023/03/01 09:35:25;;;;;;;19.23;10.48;;;2.60;99.90;;;;;;5051021;28;20041;-65
2023/03/01 09:37:51;;;;;;;18.48;10.98;;;2.70;99.90;;;;;;5051362;28;20080;-66
2023/03/01 09:40:20;;;;;;;15.43;9.48;;;2.80;99.90;;;;;;5051869;28;20623;-66
2023/03/01 09:43:11;;;;;;;18.70;8.85;;;3.00;99.90;;;;;;5050635;28;20080;-66
2023/03/01 09:45:43;;;;;;;15.05;8.10;;;3.10;99.90;;;;;;5051073;28;20055;-66
2023/03/01 09:48:23;;;;;;;11.93;7.63;;;3.30;99.90;;;;;;5051902;28;20052;-65
2023/03/01 09:50:49;;;;;;;14.32;8.50;;;3.40;99.90;;;;;;5042377;28;20040;-66
2023/03/01 09:53:26;;;;;;;13.25;7.47;;;3.50;99.90;;;;;;5051546;28;20041;-66
2023/03/01 09:56:18;;;;;;;13.85;7.18;;;3.60;99.90;;;;;;5050533;28;20491;-65
2023/03/01 09:58:47;;;;;;;14.65;8.18;;;3.60;99.90;;;;;;5050038;28;20111;-66
2023/03/01 10:01:32;;;;;;;14.68;6.55;;;3.70;99.90;;;;;;5050782;28;20045;-66
2023/03/01 10:04:37;;;;;;;10.10;6.28;;;3.80;99.90;;;;;;5044042;28;20033;-66
2023/03/01 10:07:26;;;;;;;12.80;5.68;;;4.00;99.90;;;;;;5035205;28;20025;-66
2023/03/01 10:09:52;;;;;;;8.75;4.85;;;4.00;99.90;;;;;;5044123;28;20131;-66
2023/03/01 10:12:25;;;;;;;7.07;3.78;;;4.10;99.90;;;;;;5050688;28;20136;-66
2023/03/01 10:15:14;;;;;;;9.10;3.75;;;4.10;99.90;;;;;;5065094;28;20059;-66
2023/03/01 10:17:45;;;;;;;6.70;3.60;;;4.20;99.90;;;;;;5070913;28;20045;-66
2023/03/01 10:20:18;;;;;;;6.60;3.88;;;4.30;99.90;;;;;;5055613;28;20049;-66
2023/03/01 10:22:50;;;;;;;6.07;3.53;;;4.30;99.90;;;;;;5046841;28;20037;-66
2023/03/01 10:25:20;;;;;;;5.57;3.75;;;4.30;99.90;;;;;;5050672;28;20414;-66
2023/03/01 10:27:55;;;;;;;7.13;3.85;;;4.40;99.90;;;;;;5049804;28;20029;-66
2023/03/01 10:30:39;;;;;;;5.50;3.75;;;4.40;99.90;;;;;;5050372;28;20600;-66
2023/03/01 10:33:16;;;;;;;6.70;4.00;;;4.50;99.90;;;;;;5050606;28;20048;-67
2023/03/01 10:35:42;;;;;;;5.32;3.60;;;4.60;99.90;;;;;;5046351;28;20041;-67
2023/03/01 10:38:11;;;;;;;6.40;3.78;;;4.60;99.90;;;;;;5049922;28;20067;-67
2023/03/01 10:40:51;;;;;;;5.93;4.00;;;4.60;99.90;;;;;;5049546;28;20600;-67
2023/03/01 10:43:18;;;;;;;6.80;4.22;;;4.50;99.90;;;;;;5050372;28;20041;-67
2023/03/01 10:45:43;;;;;;;7.45;4.30;;;4.60;99.90;;;;;;5051509;28;20170;-67
2023/03/01 10:48:24;;;;;;;7.35;3.70;;;4.60;99.90;;;;;;5047733;28;20112;-67
2023/03/01 10:50:59;;;;;;;3.95;3.15;;;4.70;99.90;;;;;;5044732;28;20044;-67
2023/03/01 10:53:49;;;;;;;7.07;3.30;;;4.70;99.90;;;;;;5023203;28;20120;-66
2023/03/01 10:56:15;;;;;;;3.83;3.13;;;4.70;99.90;;;;;;5029964;28;20046;-66
2023/03/01 10:58:58;;;;;;;6.72;3.40;;;4.80;99.90;;;;;;5029872;28;20493;-67
2023/03/01 11:01:31;;;;;;;4.95;3.30;;;4.90;99.90;;;;;;5034551;28;20056;-67
2023/03/01 11:04:06;;;;;;;5.35;3.47;;;5.00;99.90;;;;;;5048934;28;20044;-67
2023/03/01 11:06:33;;;;;;;6.45;3.60;;;5.00;99.90;;;;;;5046040;28;20052;-66
2023/03/01 11:09:27;;;;;;;6.57;3.47;;;5.00;99.90;;;;;;5048714;28;20081;-66
2023/03/01 11:11:55;;;;;;;6.25;3.75;;;5.40;99.90;;;;;;5049490;28;20044;-66
2023/03/01 11:14:36;;;;;;;5.65;3.38;;;5.20;99.90;;;;;;5046491;28;20037;-66
2023/03/01 11:17:03;;;;;;;5.35;3.50;;;5.20;99.90;;;;;;5048818;28;20037;-66
2023/03/01 11:19:28;;;;;;;6.63;3.97;;;5.20;99.90;;;;;;5047558;28;20033;-66
2023/03/01 11:22:19;;;;;;;7.65;3.97;;;5.20;99.90;;;;;;5049711;28;20044;-66
2023/03/01 11:24:49;;;;;;;7.63;4.85;;;5.20;99.90;;;;;;5049155;28;20459;-66
2023/03/01 11:27:23;;;;;;;6.85;4.75;;;5.20;99.90;;;;;;5049359;28;20600;-66
2023/03/01 11:30:23;;;;;;;9.73;4.53;;;5.30;99.90;;;;;;5047037;28;20040;-66
2023/03/01 11:33:05;;;;;;;6.50;4.07;;;5.30;99.90;;;;;;5039638;28;20150;-66
2023/03/01 11:35:33;;;;;;;6.60;4.13;;;5.40;99.90;;;;;;5048046;28;20583;-66
2023/03/01 11:38:01;;;;;;;6.38;4.32;;;5.40;99.90;;;;;;5047498;28;20071;-66
2023/03/01 11:40:33;;;;;;;7.45;4.00;;;5.30;99.90;;;;;;5048479;28;20127;-66
2023/03/01 11:43:06;;;;;;;7.90;4.90;;;5.30;99.90;;;;;;5050049;28;20037;-66
2023/03/01 11:45:52;;;;;;;7.72;4.60;;;5.40;99.90;;;;;;5048979;28;20520;-66
2023/03/01 11:48:54;;;;;;;7.10;5.07;;;5.40;99.90;;;;;;5037859;28;20051;-66
2023/03/01 11:51:59;;;;;;;8.80;5.40;;;5.50;99.90;;;;;;5026021;28;20044;-66
2023/03/01 11:54:47;;;;;;;10.98;5.15;;;5.50;99.90;;;;;;5048920;28;20151;-66
2023/03/01 11:57:31;;;;;;;9.02;4.78;;;5.50;99.90;;;;;;5049677;28;20048;-66
2023/03/01 12:00:30;;;;;;;6.32;4.47;;;5.70;99.90;;;;;;5049380;28;20509;-66
2023/03/01 12:03:33;;;;;;;7.85;5.25;;;5.80;99.90;;;;;;5049499;28;20045;-66
2023/03/01 12:06:04;;;;;;;10.25;5.03;;;5.80;99.90;;;;;;5047989;28;20047;-66
2023/03/01 12:08:50;;;;;;;9.65;5.75;;;5.80;99.90;;;;;;5048656;28;20091;-66
2023/03/01 12:11:38;;;;;;;8.07;4.90;;;5.80;99.90;;;;;;5017266;28;20501;-66
2023/03/01 12:14:04;;;;;;;9.82;5.55;;;5.80;99.90;;;;;;5048340;28;20788;-66
2023/03/01 12:16:51;;;;;;;9.52;5.30;;;5.80;99.90;;;;;;5049303;28;20037;-66
2023/03/01 12:19:37;;;;;;;10.98;5.53;;;5.80;99.90;;;;;;5049382;28;20045;-66
2023/03/01 12:22:35;;;;;;;7.53;5.22;;;5.80;99.90;;;;;;5049219;28;20413;-66
2023/03/01 12:25:27;;;;;;;8.43;5.50;;;5.80;99.90;;;;;;5048336;28;20048;-66
2023/03/01 12:28:20;;;;;;;11.27;6.35;;;5.80;99.90;;;;;;5037934;28;20075;-66
2023/03/01 12:31:00;;;;;;;8.05;4.80;;;5.80;99.90;;;;;;5049393;28;20041;-66
2023/03/01 12:33:44;;;;;;;8.77;5.63;;;5.90;99.90;;;;;;5048113;28;20049;-66
2023/03/01 12:36:19;;;;;;;8.70;5.07;;;5.90;99.90;;;;;;5049261;28;20041;-66
2023/03/01 12:38:48;;;;;;;12.13;5.40;;;5.90;99.90;;;;;;5048983;28;20033;-66
2023/03/01 12:41:45;;;;;;;7.38;5.20;;;5.90;99.90;;;;;;5049168;28;20128;-66
2023/03/01 12:44:30;;;;;;;9.13;4.97;;;6.10;99.90;;;;;;5048059;28;20509;-66
2023/03/01 12:47:14;;;;;;;9.65;5.20;;;6.20;99.90;;;;;;5049058;28;20048;-66
2023/03/01 12:49:55;;;;;;;10.20;6.05;;;6.20;99.90;;;;;;5049162;28;20045;-66
2023/03/01 12:52:45;;;;;;;11.40;5.60;;;6.20;99.90;;;;;;5049170;28;20064;-66
2023/03/01 12:55:38;;;;;;;12.30;5.93;;;6.20;99.90;;;;;;5048189;28;20382;-66
2023/03/01 12:58:31;;;;;;;17.23;10.88;;;6.20;99.90;;;;;;5049193;28;20072;-66